Time;durP1;ratioP1;P1;durP2;ratioP2;P2;SDS_P1;SDS_P2;PMS_P1;PMS_P2;Temp;Humidity;BMP_temperature;BMP_pressure;BME280_temperature;BME280_humidity;BME280_pressure;Samples;Min_cycle;Max_cycle;Signal;HPM_P1;HPM_P2
2022/08/08 00:01:16;;;;;;;28.80;27.50;;;17.90;60.50;;;;;;5058219;28;20525;-67
2022/08/08 00:04:04;;;;;;;31.27;29.77;;;17.90;60.60;;;;;;5062570;28;20470;-67
2022/08/08 00:06:42;;;;;;;30.40;29.00;;;17.90;60.70;;;;;;5060619;28;20893;-68
2022/08/08 00:09:17;;;;;;;31.90;30.30;;;17.80;61.00;;;;;;5058340;28;20760;-67
2022/08/08 00:11:47;;;;;;;30.10;28.80;;;17.70;61.30;;;;;;5064910;28;20518;-68
2022/08/08 00:14:30;;;;;;;31.40;29.80;;;17.70;61.40;;;;;;5066199;28;20494;-68
2022/08/08 00:17:04;;;;;;;29.57;28.27;;;17.70;61.20;;;;;;5063143;28;20980;-68
2022/08/08 00:19:40;;;;;;;29.20;27.80;;;17.60;61.40;;;;;;5061538;28;20562;-67
2022/08/08 00:22:15;;;;;;;29.00;27.60;;;17.60;61.70;;;;;;5066501;28;20569;-67
2022/08/08 00:24:48;;;;;;;28.80;27.50;;;17.50;61.90;;;;;;5058414;28;20482;-68
2022/08/08 00:27:18;;;;;;;29.20;27.80;;;17.40;62.10;;;;;;5066564;28;20497;-68
2022/08/08 00:29:49;;;;;;;28.37;27.10;;;17.40;62.20;;;;;;5062264;28;21133;-68
2022/08/08 00:32:22;;;;;;;30.50;29.10;;;17.30;62.60;;;;;;5060534;28;20508;-67
2022/08/08 00:35:11;;;;;;;30.77;29.47;;;17.30;62.50;;;;;;5063570;28;20534;-68
2022/08/08 00:37:49;;;;;;;31.40;30.10;;;17.40;62.30;;;;;;5062361;28;20451;-67
2022/08/08 00:40:46;;;;;;;30.63;29.33;;;17.30;62.70;;;;;;5056772;28;20508;-68
2022/08/08 00:43:41;;;;;;;30.63;29.23;;;17.30;62.80;;;;;;5062216;28;20574;-69
2022/08/08 00:46:30;;;;;;;31.43;29.87;;;17.30;62.80;;;;;;5068801;28;20487;-70
2022/08/08 00:49:27;;;;;;;29.50;28.20;;;17.30;63.10;;;;;;5064972;28;20541;-69
2022/08/08 00:52:22;;;;;;;30.60;29.20;;;17.20;63.30;;;;;;5065025;28;20478;-70
2022/08/08 00:55:10;;;;;;;31.20;29.80;;;17.20;63.40;;;;;;5056944;28;20540;-69
2022/08/08 00:58:16;;;;;;;31.90;30.50;;;17.20;63.40;;;;;;5063700;28;20591;-69
2022/08/08 01:00:52;;;;;;;33.07;31.67;;;17.30;62.90;;;;;;5067377;28;20466;-68
2022/08/08 01:03:44;;;;;;;32.43;30.93;;;17.30;62.80;;;;;;5067074;28;20516;-67
2022/08/08 01:06:43;;;;;;;32.60;31.10;;;17.20;63.30;;;;;;5069205;28;20541;-68
2022/08/08 01:10:01;;;;;;;30.10;28.73;;;17.10;63.50;;;;;;5061272;28;21166;-67
2022/08/08 01:13:03;;;;;;;30.80;29.50;;;17.10;63.40;;;;;;4988235;28;20568;-67
2022/08/08 01:16:13;;;;;;;31.57;29.97;;;17.10;63.30;;;;;;5062254;28;20812;-67
2022/08/08 01:19:14;;;;;;;31.67;30.07;;;17.10;63.20;;;;;;5008763;28;20457;-67
2022/08/08 01:22:21;;;;;;;30.57;29.17;;;17.10;63.30;;;;;;5063205;28;20819;-67
2022/08/08 01:25:20;;;;;;;31.00;29.60;;;17.10;63.40;;;;;;5063050;28;20459;-67
2022/08/08 01:28:03;;;;;;;30.73;29.43;;;17.00;63.50;;;;;;5066543;28;20486;-69
2022/08/08 01:31:06;;;;;;;31.63;30.20;;;17.00;63.50;;;;;;5068580;28;20575;-69
2022/08/08 01:34:06;;;;;;;32.80;31.40;;;17.00;63.80;;;;;;5068456;28;21041;-69
2022/08/08 01:37:20;;;;;;;33.07;31.60;;;17.00;63.80;;;;;;5071398;28;20478;-68
2022/08/08 01:40:14;;;;;;;32.97;31.57;;;16.90;64.10;;;;;;5067314;28;20609;-69
2022/08/08 01:42:49;;;;;;;33.00;31.60;;;16.80;64.50;;;;;;5062242;28;20517;-69
2022/08/08 01:45:35;;;;;;;32.60;31.20;;;16.70;64.70;;;;;;5064533;28;20453;-69
2022/08/08 01:48:09;;;;;;;30.90;29.70;;;16.70;65.00;;;;;;5061053;28;20494;-69
2022/08/08 01:50:56;;;;;;;32.27;30.80;;;16.70;64.70;;;;;;5069989;28;20888;-69
2022/08/08 01:53:36;;;;;;;31.70;30.50;;;16.60;65.00;;;;;;5061284;28;20542;-69
2022/08/08 01:56:15;;;;;;;32.03;30.73;;;16.60;65.40;;;;;;5061018;28;20458;-69
2022/08/08 01:58:53;;;;;;;31.53;30.23;;;16.60;65.40;;;;;;5065357;28;20534;-69
2022/08/08 02:01:26;;;;;;;32.77;31.47;;;16.60;65.20;;;;;;5070491;28;20488;-69
2022/08/08 02:04:11;;;;;;;31.03;29.73;;;16.60;65.30;;;;;;5062847;28;20471;-69
2022/08/08 02:06:54;;;;;;;41.83;40.07;;;16.50;65.30;;;;;;5053966;28;20557;-69
2022/08/08 02:09:31;;;;;;;31.17;29.87;;;16.50;65.60;;;;;;5066433;28;20549;-69
2022/08/08 02:12:06;;;;;;;30.80;29.50;;;16.50;65.50;;;;;;5065235;28;20494;-69
2022/08/08 02:14:39;;;;;;;31.20;29.80;;;16.50;65.40;;;;;;5062611;28;20553;-69
2022/08/08 02:17:14;;;;;;;32.90;31.47;;;16.50;65.30;;;;;;5068148;28;20477;-69
2022/08/08 02:19:47;;;;;;;36.90;35.30;;;16.40;65.40;;;;;;5062264;28;21086;-69
2022/08/08 02:22:32;;;;;;;30.93;29.37;;;16.40;65.40;;;;;;5068395;28;22799;-68
2022/08/08 02:25:21;;;;;;;31.03;29.73;;;16.40;65.40;;;;;;5068740;28;20461;-69
2022/08/08 02:27:57;;;;;;;40.50;38.80;;;16.40;65.80;;;;;;5071205;28;20573;-67
2022/08/08 02:30:41;;;;;;;35.83;34.23;;;16.40;65.70;;;;;;5066983;28;20470;-67
2022/08/08 02:33:39;;;;;;;32.93;31.53;;;16.40;65.40;;;;;;5066971;28;20482;-66
2022/08/08 02:36:22;;;;;;;38.83;37.23;;;16.30;65.70;;;;;;5063475;28;20482;-67
2022/08/08 02:39:06;;;;;;;39.93;38.20;;;16.20;66.10;;;;;;5067447;28;20569;-67
2022/08/08 02:41:49;;;;;;;31.20;29.80;;;16.20;66.40;;;;;;5069924;28;20509;-67
2022/08/08 02:44:53;;;;;;;30.53;29.23;;;16.10;66.70;;;;;;5067357;28;20553;-67
2022/08/08 02:48:02;;;;;;;32.37;30.90;;;16.00;67.10;;;;;;5068053;28;20537;-67
2022/08/08 02:51:25;;;;;;;31.80;30.50;;;16.00;67.10;;;;;;5065956;28;20904;-67
2022/08/08 02:54:02;;;;;;;31.20;29.90;;;16.00;66.90;;;;;;5068641;28;20461;-66
2022/08/08 02:57:19;;;;;;;33.23;31.73;;;16.10;66.50;;;;;;5069080;28;21479;-67
2022/08/08 03:00:20;;;;;;;34.30;32.80;;;16.00;66.80;;;;;;5020648;28;20903;-67
2022/08/08 03:03:42;;;;;;;31.70;30.30;;;16.00;66.90;;;;;;5067630;28;20574;-66
2022/08/08 03:06:39;;;;;;;34.27;32.77;;;16.00;66.70;;;;;;5057563;28;20482;-67
2022/08/08 03:09:34;;;;;;;33.73;32.13;;;16.00;66.90;;;;;;5068314;28;20540;-67
2022/08/08 03:12:39;;;;;;;37.27;35.60;;;15.90;67.20;;;;;;5066729;28;20571;-66
2022/08/08 03:15:50;;;;;;;32.67;31.27;;;15.90;67.30;;;;;;5063126;28;20554;-67
2022/08/08 03:18:22;;;;;;;32.87;31.47;;;15.80;67.40;;;;;;5062475;28;20486;-67
2022/08/08 03:20:51;;;;;;;30.27;28.97;;;15.80;67.50;;;;;;5068029;28;20559;-66
2022/08/08 03:23:19;;;;;;;31.17;29.67;;;15.80;67.80;;;;;;5065253;28;20474;-67
2022/08/08 03:25:47;;;;;;;34.93;33.13;;;15.70;68.00;;;;;;5057414;28;20474;-67
2022/08/08 03:28:20;;;;;;;34.87;33.27;;;15.70;67.90;;;;;;5067433;28;20482;-67
2022/08/08 03:30:47;;;;;;;52.40;49.93;;;15.70;68.20;;;;;;5068500;28;20562;-67
2022/08/08 03:33:17;;;;;;;43.33;41.17;;;15.70;68.10;;;;;;5064954;28;20473;-67
2022/08/08 03:35:45;;;;;;;31.23;29.90;;;15.60;68.20;;;;;;5068070;28;20442;-69
2022/08/08 03:38:12;;;;;;;29.73;28.43;;;15.60;68.40;;;;;;5057281;28;20535;-70
2022/08/08 03:40:40;;;;;;;30.67;29.37;;;15.60;68.30;;;;;;5066810;28;21064;-69
2022/08/08 03:43:09;;;;;;;30.13;28.73;;;15.60;68.50;;;;;;5067721;28;21047;-69
2022/08/08 03:45:36;;;;;;;45.53;43.40;;;15.60;68.40;;;;;;5069279;28;20446;-69
2022/08/08 03:48:06;;;;;;;50.80;48.50;;;15.60;68.50;;;;;;5065871;28;20542;-69
2022/08/08 03:50:34;;;;;;;32.03;30.63;;;15.50;68.70;;;;;;5062822;28;20496;-69
2022/08/08 03:53:05;;;;;;;37.37;35.77;;;15.50;68.70;;;;;;5067969;28;20553;-69
2022/08/08 03:55:33;;;;;;;38.53;36.83;;;15.50;68.70;;;;;;5067143;28;20541;-69
2022/08/08 03:58:01;;;;;;;33.57;31.97;;;15.50;68.80;;;;;;5067168;28;20549;-69
2022/08/08 04:00:29;;;;;;;40.10;38.20;;;15.50;69.20;;;;;;5066502;28;20524;-69
2022/08/08 04:02:58;;;;;;;32.27;30.87;;;15.40;69.20;;;;;;5066497;28;20470;-68
2022/08/08 04:05:26;;;;;;;38.30;36.60;;;15.40;69.20;;;;;;5068404;28;20466;-69
2022/08/08 04:07:53;;;;;;;40.93;39.13;;;15.40;69.40;;;;;;5068312;28;20461;-69
2022/08/08 04:10:20;;;;;;;57.50;54.90;;;15.40;69.60;;;;;;5067012;28;20502;-67
2022/08/08 04:12:47;;;;;;;45.83;43.67;;;15.40;69.70;;;;;;5065919;28;20573;-67
2022/08/08 04:15:15;;;;;;;32.27;30.77;;;15.40;69.60;;;;;;5066359;28;20485;-67
2022/08/08 04:17:43;;;;;;;59.17;56.43;;;15.40;69.50;;;;;;5067546;28;20542;-67
2022/08/08 04:20:10;;;;;;;40.90;39.07;;;15.50;69.00;;;;;;5062395;28;20492;-67
2022/08/08 04:22:38;;;;;;;38.43;36.77;;;15.50;69.40;;;;;;5064691;28;20549;-68
2022/08/08 04:25:06;;;;;;;42.23;40.30;;;15.50;69.30;;;;;;5067186;28;20542;-67
2022/08/08 04:27:34;;;;;;;60.90;58.10;;;15.40;69.50;;;;;;5064162;28;20497;-67
2022/08/08 04:30:02;;;;;;;35.10;33.50;;;15.30;69.70;;;;;;5065943;28;21035;-67
2022/08/08 04:32:30;;;;;;;56.83;54.30;;;15.30;69.70;;;;;;5065770;28;20563;-67
2022/08/08 04:34:57;;;;;;;45.87;43.80;;;15.40;69.80;;;;;;5056272;28;20538;-67
2022/08/08 04:37:24;;;;;;;48.67;46.47;;;15.40;69.80;;;;;;5065758;28;20534;-67
2022/08/08 04:39:51;;;;;;;34.83;33.27;;;15.50;69.90;;;;;;5066012;28;20573;-70
2022/08/08 04:42:18;;;;;;;58.80;56.00;;;15.50;69.60;;;;;;5066283;28;20462;-66
2022/08/08 04:44:45;;;;;;;35.17;33.00;;;15.60;69.50;;;;;;5060409;28;21059;-66
2022/08/08 04:47:12;;;;;;;51.33;48.90;;;15.70;69.40;;;;;;5065869;28;20542;-67
2022/08/08 04:49:41;;;;;;;38.93;37.00;;;15.70;69.00;;;;;;5064318;28;21037;-66
2022/08/08 04:52:08;;;;;;;30.93;29.47;;;15.70;68.90;;;;;;5058630;28;20976;-68
2022/08/08 04:54:35;;;;;;;49.50;47.27;;;15.70;69.20;;;;;;5063491;28;20601;-67
2022/08/08 04:57:02;;;;;;;30.47;29.17;;;15.70;69.30;;;;;;5059755;28;20882;-66
2022/08/08 04:59:29;;;;;;;59.57;56.97;;;15.70;69.10;;;;;;5058306;28;20481;-66
2022/08/08 05:01:56;;;;;;;41.53;39.50;;;15.80;69.20;;;;;;5064325;28;20538;-66
2022/08/08 05:04:22;;;;;;;47.20;45.00;;;15.80;69.10;;;;;;5060811;28;20565;-69
2022/08/08 05:06:51;;;;;;;28.80;27.50;;;15.80;68.80;;;;;;5067897;28;20960;-68
2022/08/08 05:09:18;;;;;;;52.67;49.67;;;15.80;68.80;;;;;;5063722;28;20971;-68
2022/08/08 05:11:45;;;;;;;31.17;29.83;;;15.80;69.00;;;;;;5060117;28;20461;-66
2022/08/08 05:14:12;;;;;;;28.23;27.00;;;15.90;69.00;;;;;;5060060;28;20503;-74
2022/08/08 05:16:39;;;;;;;46.70;43.87;;;16.10;68.80;;;;;;5063583;28;20486;-73
2022/08/08 05:19:11;;;;;;;46.30;44.27;;;16.30;68.20;;;;;;5065212;28;20820;-69
2022/08/08 05:21:39;;;;;;;31.70;30.20;;;16.30;67.80;;;;;;5066388;28;20618;-69
2022/08/08 05:24:09;;;;;;;30.90;29.50;;;16.30;67.90;;;;;;5056130;28;20930;-70
2022/08/08 05:26:36;;;;;;;54.13;51.63;;;16.30;68.30;;;;;;5067997;28;20550;-71
2022/08/08 05:29:07;;;;;;;36.07;34.47;;;16.40;68.10;;;;;;5062375;28;20557;-69
2022/08/08 05:31:34;;;;;;;31.23;29.73;;;16.50;67.90;;;;;;5065460;28;20478;-68
2022/08/08 05:34:05;;;;;;;32.10;30.60;;;16.60;67.90;;;;;;5060097;28;20462;-69
2022/08/08 05:36:35;;;;;;;37.80;36.10;;;16.70;67.50;;;;;;5059165;28;20288;-69
2022/08/08 05:39:05;;;;;;;48.10;45.80;;;16.70;67.40;;;;;;5061191;28;20587;-70
2022/08/08 05:41:36;;;;;;;29.10;27.60;;;16.80;67.50;;;;;;5055853;28;20566;-69
2022/08/08 05:44:07;;;;;;;44.33;42.27;;;16.90;67.30;;;;;;5062796;28;20835;-68
2022/08/08 05:46:35;;;;;;;37.67;35.87;;;17.10;66.90;;;;;;5059768;28;20847;-76
2022/08/08 05:49:03;;;;;;;52.27;49.57;;;17.30;66.40;;;;;;5056602;28;20653;-74
2022/08/08 05:51:30;;;;;;;35.83;34.20;;;17.50;66.00;;;;;;5069419;28;20475;-71
2022/08/08 05:53:57;;;;;;;34.00;32.50;;;17.70;65.40;;;;;;5058960;28;20299;-69
2022/08/08 05:56:26;;;;;;;45.67;43.57;;;17.80;65.00;;;;;;5064918;28;20459;-69
2022/08/08 05:59:03;;;;;;;35.03;33.13;;;17.90;64.90;;;;;;5058778;28;20837;-71
2022/08/08 06:01:31;;;;;;;38.10;36.40;;;18.00;64.40;;;;;;5070178;28;20987;-69
2022/08/08 06:04:02;;;;;;;32.03;30.63;;;18.20;64.00;;;;;;5064583;28;20890;-69
2022/08/08 06:06:31;;;;;;;51.10;48.70;;;18.40;63.50;;;;;;5063997;28;20473;-69
2022/08/08 06:09:03;;;;;;;31.80;30.30;;;18.50;62.80;;;;;;5069690;28;20840;-70
2022/08/08 06:11:31;;;;;;;39.60;37.87;;;18.60;62.50;;;;;;5067145;28;20571;-69
2022/08/08 06:14:01;;;;;;;49.70;47.43;;;18.70;62.30;;;;;;5062773;28;20465;-69
2022/08/08 06:16:28;;;;;;;43.43;41.47;;;18.80;61.90;;;;;;5068384;28;20759;-69
2022/08/08 06:18:55;;;;;;;43.07;41.17;;;18.90;61.70;;;;;;5062491;28;20575;-69
2022/08/08 06:21:23;;;;;;;40.47;38.43;;;19.00;61.50;;;;;;5062779;28;20476;-70
2022/08/08 06:23:50;;;;;;;41.90;40.00;;;19.20;61.20;;;;;;5062618;28;20568;-72
2022/08/08 06:26:19;;;;;;;44.73;42.10;;;19.30;61.10;;;;;;5067526;28;21225;-69
2022/08/08 06:28:53;;;;;;;39.80;37.70;;;19.40;61.10;;;;;;5067005;28;20927;-70
2022/08/08 06:31:23;;;;;;;37.53;35.93;;;19.60;61.00;;;;;;5071160;28;20474;-69
2022/08/08 06:33:54;;;;;;;41.63;39.63;;;19.70;60.70;;;;;;5065478;28;20463;-69
2022/08/08 06:36:30;;;;;;;54.43;51.77;;;19.80;60.50;;;;;;5069501;28;20552;-69
2022/08/08 06:39:00;;;;;;;55.33;52.63;;;19.90;60.20;;;;;;5064671;28;20461;-69
2022/08/08 06:41:31;;;;;;;36.30;34.60;;;20.00;60.30;;;;;;5064566;28;20983;-69
2022/08/08 06:44:04;;;;;;;44.13;41.93;;;20.10;59.80;;;;;;5065894;28;21170;-71
2022/08/08 06:46:33;;;;;;;53.93;51.23;;;20.30;59.70;;;;;;5067735;28;20471;-71
2022/08/08 06:49:01;;;;;;;46.03;43.93;;;20.30;59.60;;;;;;5066210;28;20474;-72
2022/08/08 06:51:28;;;;;;;36.63;35.00;;;20.40;59.50;;;;;;5069121;28;20561;-69
2022/08/08 06:54:01;;;;;;;37.97;36.10;;;20.50;59.50;;;;;;5066465;28;20487;-70
2022/08/08 06:56:29;;;;;;;37.80;36.10;;;20.60;59.20;;;;;;5067511;28;20455;-71
2022/08/08 06:58:58;;;;;;;39.80;37.90;;;20.80;59.10;;;;;;5061986;28;20492;-70
2022/08/08 07:01:27;;;;;;;38.00;36.20;;;20.90;59.00;;;;;;5062564;28;20571;-70
2022/08/08 07:04:00;;;;;;;48.63;45.77;;;21.00;59.00;;;;;;5061563;28;20550;-73
2022/08/08 07:06:33;;;;;;;35.23;33.73;;;21.10;58.90;;;;;;5068187;28;20785;-70
2022/08/08 07:09:08;;;;;;;53.03;50.63;;;21.20;58.80;;;;;;5065387;28;20461;-70
2022/08/08 07:11:41;;;;;;;32.70;31.30;;;21.30;58.60;;;;;;5063145;28;20489;-71
2022/08/08 07:14:16;;;;;;;33.87;32.47;;;21.40;58.40;;;;;;5066309;28;20574;-68
2022/08/08 07:16:50;;;;;;;43.70;41.73;;;21.60;58.50;;;;;;5067857;28;20450;-65
2022/08/08 07:19:27;;;;;;;34.80;33.23;;;21.70;58.40;;;;;;5067103;28;20461;-66
2022/08/08 07:21:56;;;;;;;40.00;38.20;;;21.90;58.10;;;;;;5065792;28;20532;-68
2022/08/08 07:24:34;;;;;;;53.23;50.80;;;21.90;57.90;;;;;;5064030;28;20565;-67
2022/08/08 07:27:01;;;;;;;49.27;47.07;;;21.90;58.30;;;;;;5065133;28;20465;-67
2022/08/08 07:29:30;;;;;;;37.90;36.27;;;21.90;58.10;;;;;;5062749;28;20454;-70
2022/08/08 07:31:57;;;;;;;37.13;33.07;;;22.00;58.30;;;;;;5063743;28;20557;-70
2022/08/08 07:34:27;;;;;;;33.10;31.30;;;22.10;58.70;;;;;;5067063;28;20542;-69
2022/08/08 07:36:56;;;;;;;33.00;31.50;;;22.30;58.20;;;;;;5066769;28;20561;-71
2022/08/08 07:39:24;;;;;;;56.97;54.67;;;22.40;58.30;;;;;;5062944;28;20960;-67
2022/08/08 07:41:51;;;;;;;46.67;44.27;;;22.60;58.40;;;;;;5059770;28;20469;-70
2022/08/08 07:44:18;;;;;;;37.33;35.63;;;22.70;58.40;;;;;;5067523;28;20486;-70
2022/08/08 07:46:45;;;;;;;51.87;49.43;;;22.70;58.60;;;;;;5066330;28;20474;-67
2022/08/08 07:49:13;;;;;;;43.73;41.80;;;22.80;58.70;;;;;;5064342;28;20458;-67
2022/08/08 07:51:42;;;;;;;37.70;35.77;;;22.90;58.50;;;;;;5064578;28;20482;-70
2022/08/08 07:54:15;;;;;;;37.40;35.70;;;23.00;58.20;;;;;;5057061;28;20455;-70
2022/08/08 07:56:49;;;;;;;39.63;37.93;;;23.10;57.90;;;;;;5065584;28;20471;-69
2022/08/08 07:59:16;;;;;;;56.33;53.80;;;23.10;57.90;;;;;;5065156;28;20828;-68
2022/08/08 08:01:54;;;;;;;37.70;35.83;;;23.00;58.20;;;;;;5061942;28;21351;-68
2022/08/08 08:04:27;;;;;;;40.23;38.43;;;23.10;58.20;;;;;;5063495;28;20573;-67
2022/08/08 08:06:58;;;;;;;38.97;36.80;;;23.10;58.10;;;;;;5067036;28;20469;-69
2022/08/08 08:09:28;;;;;;;50.17;47.60;;;23.30;57.80;;;;;;5064422;28;20546;-71
2022/08/08 08:11:56;;;;;;;34.53;33.03;;;23.40;57.50;;;;;;5064894;28;20541;-73
2022/08/08 08:14:28;;;;;;;37.83;36.20;;;23.60;56.90;;;;;;5063242;28;20486;-71
2022/08/08 08:16:57;;;;;;;47.13;44.90;;;23.50;57.10;;;;;;5062476;28;21050;-75
2022/08/08 08:19:30;;;;;;;35.20;33.60;;;23.70;56.80;;;;;;5065901;28;20506;-69
2022/08/08 08:21:58;;;;;;;39.47;37.70;;;24.00;56.20;;;;;;5067130;28;20811;-74
2022/08/08 08:24:26;;;;;;;36.27;34.67;;;23.90;55.90;;;;;;5059425;28;21173;-68
2022/08/08 08:26:53;;;;;;;35.57;33.97;;;23.80;55.70;;;;;;5068018;28;20454;-68
2022/08/08 08:29:20;;;;;;;37.53;35.83;;;23.70;56.00;;;;;;5060010;28;20497;-70
2022/08/08 08:31:48;;;;;;;41.03;39.13;;;23.80;56.20;;;;;;5065711;28;20462;-69
2022/08/08 08:34:15;;;;;;;47.50;45.17;;;23.90;55.80;;;;;;5062212;28;20964;-69
2022/08/08 08:36:43;;;;;;;39.73;37.83;;;24.10;55.40;;;;;;5068913;28;20478;-70
2022/08/08 08:39:12;;;;;;;50.60;48.27;;;24.30;55.00;;;;;;5063351;28;20554;-72
2022/08/08 08:41:40;;;;;;;42.97;40.90;;;24.60;54.50;;;;;;5061436;28;20476;-71
2022/08/08 08:44:08;;;;;;;34.30;32.80;;;24.80;54.20;;;;;;5061741;28;20462;-69
2022/08/08 08:46:36;;;;;;;50.70;48.47;;;25.00;53.90;;;;;;5068568;28;20522;-69
2022/08/08 08:49:03;;;;;;;49.07;46.97;;;25.00;53.40;;;;;;5067471;28;20478;-67
2022/08/08 08:51:31;;;;;;;55.93;53.33;;;25.00;53.10;;;;;;5066908;28;20570;-69
2022/08/08 08:54:02;;;;;;;36.60;34.90;;;25.00;53.00;;;;;;5066520;28;20473;-69
2022/08/08 08:56:33;;;;;;;48.00;45.90;;;25.20;53.00;;;;;;5065094;28;20569;-69
2022/08/08 08:59:01;;;;;;;52.63;50.17;;;25.20;52.70;;;;;;5060631;28;20449;-69
2022/08/08 09:01:32;;;;;;;55.37;52.77;;;25.30;52.40;;;;;;5066142;28;21068;-69
2022/08/08 09:04:04;;;;;;;55.33;52.87;;;25.30;52.10;;;;;;5061272;28;20545;-69
2022/08/08 09:06:38;;;;;;;42.27;40.40;;;25.20;52.40;;;;;;5068056;28;20452;-69
2022/08/08 09:09:08;;;;;;;39.47;37.57;;;25.30;52.40;;;;;;5059593;28;20452;-69
2022/08/08 09:11:37;;;;;;;42.67;40.70;;;25.40;51.90;;;;;;5069271;28;20571;-69
2022/08/08 09:14:04;;;;;;;36.50;34.80;;;25.40;52.00;;;;;;5061046;28;20474;-69
2022/08/08 09:16:32;;;;;;;40.50;38.70;;;25.30;52.10;;;;;;5065486;28;20562;-69
2022/08/08 09:18:59;;;;;;;47.80;45.60;;;25.50;51.80;;;;;;5067850;28;20563;-69
2022/08/08 09:21:27;;;;;;;41.30;39.30;;;25.60;51.40;;;;;;5068518;28;20472;-69
2022/08/08 09:23:54;;;;;;;37.80;36.10;;;25.40;51.60;;;;;;5061073;28;20553;-69
2022/08/08 09:26:34;;;;;;;42.70;40.70;;;25.40;52.00;;;;;;5069540;28;20570;-70
2022/08/08 09:29:06;;;;;;;41.00;39.20;;;25.40;50.90;;;;;;5063467;28;20463;-69
2022/08/08 09:31:47;;;;;;;43.17;41.07;;;25.30;50.50;;;;;;5065211;28;21025;-69
2022/08/08 09:34:19;;;;;;;36.13;34.47;;;25.40;50.10;;;;;;5060355;28;20491;-69
2022/08/08 09:36:48;;;;;;;40.30;38.57;;;25.50;49.30;;;;;;5068896;28;20460;-67
2022/08/08 09:39:19;;;;;;;43.10;41.20;;;25.50;48.90;;;;;;5069891;28;20559;-67
2022/08/08 09:41:59;;;;;;;40.00;38.20;;;25.50;49.70;;;;;;5072456;28;20483;-68
2022/08/08 09:44:34;;;;;;;36.63;34.67;;;25.70;49.80;;;;;;5059373;28;20461;-67
2022/08/08 09:47:06;;;;;;;39.80;38.00;;;25.70;49.70;;;;;;5066825;28;20467;-71
2022/08/08 09:49:36;;;;;;;42.13;40.13;;;25.70;50.10;;;;;;5067635;28;20478;-70
2022/08/08 09:52:05;;;;;;;36.40;34.90;;;25.80;49.30;;;;;;5069121;28;20456;-71
2022/08/08 09:54:41;;;;;;;41.13;39.30;;;25.80;48.80;;;;;;5066170;28;20965;-72
2022/08/08 09:57:10;;;;;;;41.00;39.00;;;25.80;48.50;;;;;;5067194;28;20465;-70
2022/08/08 09:59:42;;;;;;;38.47;36.77;;;25.70;47.50;;;;;;5065831;28;20575;-70
2022/08/08 10:02:19;;;;;;;52.73;50.00;;;25.70;47.20;;;;;;5065715;28;20972;-72
2022/08/08 10:04:47;;;;;;;42.63;40.77;;;25.70;46.70;;;;;;5065672;28;20476;-71
2022/08/08 10:07:14;;;;;;;36.70;35.20;;;25.80;46.20;;;;;;5066091;28;20458;-72
2022/08/08 10:09:43;;;;;;;36.37;34.53;;;25.90;46.20;;;;;;5068148;28;20488;-71
2022/08/08 10:12:11;;;;;;;36.07;34.47;;;26.00;45.60;;;;;;5068139;28;20458;-70
2022/08/08 10:14:40;;;;;;;48.80;46.50;;;26.30;44.60;;;;;;5064434;28;20553;-69
2022/08/08 10:17:08;;;;;;;56.00;53.40;;;26.50;44.20;;;;;;5068192;28;20457;-68
2022/08/08 10:19:38;;;;;;;37.30;35.50;;;26.40;44.90;;;;;;5065970;28;20541;-70
2022/08/08 10:22:07;;;;;;;42.23;40.40;;;26.60;45.40;;;;;;5068045;28;21015;-69
2022/08/08 10:24:36;;;;;;;44.30;42.30;;;26.70;45.10;;;;;;5068045;28;20458;-72
2022/08/08 10:27:04;;;;;;;42.73;40.83;;;26.80;44.80;;;;;;5067914;28;20555;-71
2022/08/08 10:29:48;;;;;;;49.10;46.83;;;27.10;44.80;;;;;;5059783;28;20455;-70
2022/08/08 10:32:35;;;;;;;40.57;38.77;;;27.10;45.00;;;;;;5068703;28;20493;-70
2022/08/08 10:35:06;;;;;;;42.27;40.40;;;26.80;45.40;;;;;;5063955;28;20446;-72
2022/08/08 10:37:34;;;;;;;42.93;40.90;;;26.90;45.60;;;;;;5067684;28;20454;-75
2022/08/08 10:40:11;;;;;;;37.93;36.23;;;27.10;45.60;;;;;;5067041;28;20476;-73
2022/08/08 10:42:40;;;;;;;45.83;43.87;;;27.10;45.90;;;;;;5071486;28;20558;-71
2022/08/08 10:45:10;;;;;;;41.10;39.30;;;27.20;46.10;;;;;;5067202;28;20485;-71
2022/08/08 10:47:38;;;;;;;49.50;47.20;;;27.40;45.80;;;;;;5069122;28;20512;-71
2022/08/08 10:50:07;;;;;;;38.77;36.87;;;27.60;45.50;;;;;;5055549;28;20995;-75
2022/08/08 10:52:36;;;;;;;45.90;43.70;;;27.50;45.60;;;;;;5069704;28;20496;-72
2022/08/08 10:55:05;;;;;;;47.13;44.80;;;27.60;45.30;;;;;;5060342;28;20457;-74
2022/08/08 10:57:37;;;;;;;38.77;36.97;;;27.60;45.20;;;;;;5062135;28;20463;-73
2022/08/08 11:00:05;;;;;;;55.60;52.93;;;27.50;45.00;;;;;;5057833;28;20479;-72
2022/08/08 11:02:34;;;;;;;56.30;53.50;;;27.50;44.10;;;;;;5069680;28;20988;-73
2022/08/08 11:05:04;;;;;;;45.90;43.33;;;27.40;43.40;;;;;;5065521;28;20825;-73
2022/08/08 11:07:33;;;;;;;47.90;45.70;;;27.40;42.70;;;;;;5069961;28;20455;-71
2022/08/08 11:10:02;;;;;;;39.40;37.60;;;27.40;42.60;;;;;;5061913;28;20485;-70
2022/08/08 11:12:29;;;;;;;41.23;39.33;;;27.50;42.30;;;;;;5064936;28;20562;-68
2022/08/08 11:14:58;;;;;;;38.80;37.07;;;27.50;42.10;;;;;;5063046;28;20509;-68
2022/08/08 11:17:28;;;;;;;49.47;47.10;;;27.50;41.80;;;;;;5060093;28;20463;-67
2022/08/08 11:19:57;;;;;;;34.80;33.13;;;27.50;41.90;;;;;;5059590;28;20593;-68
2022/08/08 11:22:29;;;;;;;39.27;37.37;;;27.50;41.70;;;;;;5059888;28;20545;-68
2022/08/08 11:25:00;;;;;;;45.07;42.97;;;27.50;42.10;;;;;;5061462;28;20462;-69
2022/08/08 11:27:30;;;;;;;36.43;34.83;;;27.60;42.80;;;;;;5060363;28;20462;-69
2022/08/08 11:29:58;;;;;;;50.13;47.70;;;27.70;42.40;;;;;;5061407;28;20493;-69
2022/08/08 11:32:29;;;;;;;39.63;37.93;;;27.70;42.20;;;;;;5060686;28;20454;-69
2022/08/08 11:35:04;;;;;;;40.47;38.47;;;27.70;41.70;;;;;;5060523;28;20450;-69
2022/08/08 11:37:32;;;;;;;40.20;38.40;;;27.60;41.90;;;;;;5059431;28;20480;-69
2022/08/08 11:40:01;;;;;;;43.50;41.63;;;27.60;40.20;;;;;;5060444;28;20548;-69
2022/08/08 11:42:28;;;;;;;38.60;37.00;;;27.80;40.40;;;;;;5057169;28;20451;-69
2022/08/08 11:44:57;;;;;;;54.20;50.00;;;27.80;40.10;;;;;;5054238;28;20454;-70
2022/08/08 11:47:25;;;;;;;47.17;44.97;;;28.00;40.00;;;;;;5061579;28;20474;-68
2022/08/08 11:49:54;;;;;;;44.30;42.33;;;28.20;38.90;;;;;;5057067;28;20482;-69
2022/08/08 11:52:24;;;;;;;42.30;40.30;;;28.20;39.10;;;;;;5063870;28;20459;-70
2022/08/08 11:54:51;;;;;;;43.47;41.57;;;28.30;38.30;;;;;;5055873;28;20534;-69
2022/08/08 11:57:24;;;;;;;51.53;49.23;;;28.30;38.30;;;;;;5063582;28;20466;-69
2022/08/08 12:00:00;;;;;;;43.07;41.17;;;28.20;38.60;;;;;;5059020;28;20889;-69
2022/08/08 12:02:29;;;;;;;57.77;55.07;;;28.10;39.10;;;;;;5057054;28;20458;-67
2022/08/08 12:05:07;;;;;;;50.20;48.00;;;28.10;39.60;;;;;;5058111;28;20547;-68
2022/08/08 12:07:49;;;;;;;50.43;48.23;;;28.20;39.90;;;;;;5058389;28;20554;-67
2022/08/08 12:10:18;;;;;;;43.20;41.20;;;28.40;40.00;;;;;;5060205;28;20506;-69
2022/08/08 12:12:47;;;;;;;49.47;47.27;;;28.60;39.30;;;;;;5059026;28;20477;-67
2022/08/08 12:15:26;;;;;;;55.90;53.33;;;28.80;39.10;;;;;;5061812;28;20537;-69
2022/08/08 12:17:54;;;;;;;40.47;38.67;;;29.00;38.60;;;;;;5063048;28;20512;-69
2022/08/08 12:20:21;;;;;;;43.73;41.83;;;29.00;39.00;;;;;;5061092;28;20520;-68
2022/08/08 12:22:52;;;;;;;47.23;45.17;;;29.20;38.30;;;;;;5057064;28;20458;-71
2022/08/08 12:25:24;;;;;;;52.57;50.17;;;29.50;36.80;;;;;;5057972;28;20455;-69
2022/08/08 12:27:52;;;;;;;43.10;41.20;;;29.30;36.70;;;;;;5055602;28;20548;-69
2022/08/08 12:30:30;;;;;;;36.23;34.63;;;29.30;37.00;;;;;;5059538;28;21011;-70
2022/08/08 12:32:58;;;;;;;51.57;49.27;;;29.00;37.50;;;;;;5061347;28;20512;-70
2022/08/08 12:35:27;;;;;;;54.37;51.80;;;28.70;37.90;;;;;;5064753;28;20458;-68
2022/08/08 12:38:06;;;;;;;38.67;36.80;;;28.60;38.50;;;;;;5066872;28;20458;-68
2022/08/08 12:40:39;;;;;;;51.93;49.37;;;28.80;37.90;;;;;;5060376;28;20489;-67
2022/08/08 12:43:06;;;;;;;40.77;38.77;;;28.80;37.90;;;;;;5049780;28;20463;-68
2022/08/08 12:45:34;;;;;;;56.03;53.33;;;28.80;38.10;;;;;;5061441;28;20479;-67
2022/08/08 12:48:02;;;;;;;44.50;42.47;;;29.00;37.80;;;;;;5064863;28;20463;-68
2022/08/08 12:50:45;;;;;;;49.77;47.30;;;29.00;37.50;;;;;;5060197;28;20554;-69
2022/08/08 12:53:25;;;;;;;53.13;50.73;;;29.20;37.70;;;;;;5063377;28;20489;-70
2022/08/08 12:55:58;;;;;;;40.67;38.90;;;29.30;37.30;;;;;;5060762;28;20450;-67
2022/08/08 12:58:42;;;;;;;35.60;33.90;;;29.50;36.80;;;;;;5062714;28;20864;-69
2022/08/08 13:01:11;;;;;;;54.80;52.27;;;29.50;37.10;;;;;;5061144;28;20498;-69
2022/08/08 13:03:45;;;;;;;39.00;37.20;;;29.40;37.40;;;;;;5063868;28;20453;-67